Original METAR for KT82:
072215Z 17007G17KT 10SM SCT075 34/15 A3004 RMK AO2 T03370148

Wind: 170° at 7 knots (gusting to 17 knots)
Visibility: 10 statute miles
Sky conditions: Scattered clouds at 7,500 feet
Temperature: 93.2°F
Dew Point: 59°F
Altimeter: 30.04

Remarks:
-- METAR generated by an automated station with a precipitation discriminator.
-- Precise hourly temperature and dew point: 33.7°C / 14.8°C

NOTE:
This METAR was retrieved from metars.com at:
http://www.metars.com/stations/KT82.html


Cessnas2Oshkosh, C2O, CessnaBaseCamp and The Pirep | Testimonials | Donations | FAQ | Privacy | Contact Us
are trademarks of Cessnas 2 Oshkosh, Inc. - Dothan, AL Copyright © 2008 - 2022 Cessnas 2 Oshkosh, Inc. All rights reserved.